Time;durP1;ratioP1;P1;durP2;ratioP2;P2;SDS_P1;SDS_P2;PMS_P1;PMS_P2;Temp;Humidity;BMP_temperature;BMP_pressure;BME280_temperature;BME280_humidity;BME280_pressure;Samples;Min_cycle;Max_cycle;Signal;HPM_P1;HPM_P2
2023/04/09 00:02:14;;;;;;;7.45;3.45;;;;;;;2.00;59.99;102093.91;10490706;28;20041;-76
2023/04/09 00:07:16;;;;;;;11.05;4.03;;;;;;;1.79;60.64;102096.56;10472989;28;20045;-76
2023/04/09 00:12:18;;;;;;;6.55;3.17;;;;;;;1.71;61.05;102083.94;10472839;28;20052;-77
2023/04/09 00:17:21;;;;;;;6.15;3.58;;;;;;;1.77;60.50;102087.78;10490146;28;20049;-77
2023/04/09 00:22:25;;;;;;;7.88;2.85;;;;;;;1.64;60.93;102088.44;10457078;28;20131;-76
2023/04/09 00:27:27;;;;;;;6.40;2.63;;;;;;;1.76;60.84;102091.53;10489833;28;20496;-77
2023/04/09 00:32:30;;;;;;;4.55;2.75;;;;;;;1.83;60.54;102097.00;10489671;28;20622;-77
2023/04/09 00:37:32;;;;;;;5.22;2.90;;;;;;;1.88;60.47;102090.00;10489631;28;20052;-77
2023/04/09 00:42:36;;;;;;;4.68;2.75;;;;;;;1.78;60.63;102089.47;10455043;28;20048;-77
2023/04/09 00:47:39;;;;;;;6.20;2.95;;;;;;;1.79;60.23;102085.72;10471730;28;20051;-75
2023/04/09 00:52:42;;;;;;;4.95;3.08;;;;;;;1.86;60.21;102091.22;10467271;28;20041;-76
2023/04/09 00:57:44;;;;;;;5.25;2.45;;;;;;;1.81;60.48;102089.91;10470116;28;20044;-76
2023/04/09 01:02:47;;;;;;;3.22;2.40;;;;;;;1.74;60.29;102089.00;10488096;28;20041;-77
2023/04/09 01:08:12;;;;;;;5.15;2.30;;;;;;;1.66;60.88;102093.66;10470875;28;20033;-77
2023/04/09 01:13:26;;;;;;;4.25;2.30;;;;;;;1.58;60.61;102088.34;10487034;28;20044;-78
2023/04/09 01:18:35;;;;;;;5.07;2.47;;;;;;;1.65;60.42;102086.56;10454365;28;20056;-76
2023/04/09 01:24:09;;;;;;;5.43;2.25;;;;;;;1.67;59.59;102095.34;10469381;28;20670;-76
2023/04/09 01:29:19;;;;;;;6.03;2.35;;;;;;;1.57;59.89;102092.09;10488226;28;20055;-78
2023/04/09 01:34:21;;;;;;;4.13;1.95;;;;;;;1.48;59.90;102094.88;10510686;28;20040;-77
2023/04/09 01:39:24;;;;;;;2.60;1.70;;;;;;;1.63;58.89;102092.16;10494133;28;20048;-76
2023/04/09 01:44:26;;;;;;;3.50;1.95;;;;;;;1.56;59.47;102091.22;10511150;28;20052;-77
2023/04/09 01:49:29;;;;;;;3.25;2.10;;;;;;;1.48;59.95;102097.56;10528499;28;20052;-77
2023/04/09 01:54:31;;;;;;;4.60;2.15;;;;;;;1.38;59.93;102088.03;10510111;28;20049;-77
2023/04/09 01:59:33;;;;;;;5.10;2.13;;;;;;;1.31;60.31;102093.34;10506772;28;20040;-77
2023/04/09 02:04:39;;;;;;;5.38;2.47;;;;;;;1.29;60.62;102090.00;10509293;28;20055;-75
2023/04/09 02:09:46;;;;;;;4.85;2.22;;;;;;;1.47;60.12;102085.06;10509767;28;20053;-76
2023/04/09 02:14:52;;;;;;;5.32;2.47;;;;;;;1.53;59.78;102088.88;10527009;28;20056;-76
2023/04/09 02:19:55;;;;;;;6.40;2.50;;;;;;;1.38;60.23;102088.03;10493047;28;20073;-76
2023/04/09 02:24:57;;;;;;;5.68;3.03;;;;;;;1.42;60.26;102090.22;10527391;28;20044;-76
2023/04/09 02:29:59;;;;;;;8.23;2.60;;;;;;;1.34;60.35;102090.28;10527419;28;20050;-76
2023/04/09 02:35:02;;;;;;;3.03;1.85;;;;;;;1.44;60.40;102090.84;10527369;28;20067;-76
2023/04/09 02:40:04;;;;;;;5.78;2.50;;;;;;;1.41;60.39;102088.53;10527142;28;20059;-76
2023/04/09 02:45:07;;;;;;;5.68;2.58;;;;;;;1.37;60.39;102094.47;10509257;28;20047;-77
2023/04/09 02:50:09;;;;;;;5.50;2.30;;;;;;;1.18;60.58;102103.97;10509063;28;20041;-76
2023/04/09 02:55:17;;;;;;;6.25;2.30;;;;;;;1.16;61.42;102089.78;10509226;28;20063;-76
2023/04/09 03:00:19;;;;;;;8.38;2.83;;;;;;;1.17;61.64;102095.00;10476426;28;20056;-76
2023/04/09 03:05:21;;;;;;;4.63;2.28;;;;;;;1.18;61.61;102090.44;10526570;28;20125;-77
2023/04/09 03:10:26;;;;;;;3.25;2.03;;;;;;;1.30;61.49;102091.69;10532848;28;20040;-76
2023/04/09 03:15:29;;;;;;;7.22;2.45;;;;;;;1.23;61.28;102106.13;10516201;28;20040;-76
2023/04/09 03:20:31;;;;;;;3.08;1.73;;;;;;;1.31;60.88;102092.50;10553168;28;20526;-77
2023/04/09 03:25:33;;;;;;;6.00;2.10;;;;;;;1.27;60.79;102093.91;10541350;28;20040;-77
2023/04/09 03:30:44;;;;;;;4.63;2.40;;;;;;;1.40;60.54;102100.38;10518074;28;20044;-77
2023/04/09 03:35:47;;;;;;;3.25;2.28;;;;;;;1.61;60.69;102096.94;10533155;28;20048;-77
2023/04/09 03:40:50;;;;;;;4.13;1.92;;;;;;;2.10;58.95;102105.31;10532565;28;20052;-77
2023/04/09 03:45:52;;;;;;;4.35;1.83;;;;;;;2.58;57.70;102107.47;10517166;28;20059;-76
2023/04/09 03:50:58;;;;;;;4.07;1.90;;;;;;;2.87;56.13;102092.97;10473837;28;20044;-77
2023/04/09 03:56:09;;;;;;;4.63;1.67;;;;;;;3.28;54.55;102087.66;10474264;28;20052;-75
2023/04/09 04:01:12;;;;;;;2.88;1.52;;;;;;;3.77;53.93;102100.31;10474063;28;20043;-76
2023/04/09 04:06:24;;;;;;;3.13;1.75;;;;;;;4.14;53.24;102104.47;10500056;28;20373;-75
2023/04/09 04:11:45;;;;;;;3.92;1.52;;;;;;;4.53;52.02;102098.34;10514325;28;20047;-76
2023/04/09 04:16:47;;;;;;;5.25;2.08;;;;;;;4.85;51.29;102099.41;10513669;28;20041;-77
2023/04/09 04:21:53;;;;;;;5.70;2.10;;;;;;;4.94;50.37;102106.34;10513899;28;20044;-76
2023/04/09 04:26:55;;;;;;;7.35;1.80;;;;;;;5.13;49.87;102100.06;10513463;28;20044;-76
2023/04/09 04:31:59;;;;;;;4.65;1.92;;;;;;;5.43;48.65;102102.38;10496786;28;20044;-76
2023/04/09 04:37:06;;;;;;;5.97;1.90;;;;;;;5.76;48.41;102096.84;10512955;28;20408;-76
2023/04/09 04:42:09;;;;;;;4.70;1.85;;;;;;;6.05;47.97;102092.78;10529475;28;20408;-77
2023/04/09 04:47:12;;;;;;;4.53;2.03;;;;;;;6.48;46.42;102098.47;10512434;28;20048;-77
2023/04/09 04:52:14;;;;;;;6.00;2.15;;;;;;;6.60;46.73;102101.34;10513047;28;20048;-77
2023/04/09 04:57:20;;;;;;;6.40;2.15;;;;;;;6.50;45.82;102095.53;10512154;28;20178;-77
2023/04/09 05:02:23;;;;;;;6.70;2.17;;;;;;;6.62;45.52;102093.78;10511880;28;20044;-77
2023/04/09 05:07:43;;;;;;;6.75;2.15;;;;;;;6.93;46.04;102106.56;10529580;28;20446;-76
2023/04/09 05:12:45;;;;;;;4.47;2.00;;;;;;;7.56;44.28;102106.47;10511574;28;20044;-76
2023/04/09 05:17:54;;;;;;;6.82;1.92;;;;;;;7.73;44.64;102112.16;10479055;28;20040;-76
2023/04/09 05:22:57;;;;;;;4.85;2.20;;;;;;;7.70;43.77;102118.09;10527609;28;20036;-77
2023/04/09 05:28:05;;;;;;;5.38;2.10;;;;;;;7.77;44.03;102116.13;10511477;28;20044;-76
2023/04/09 05:33:10;;;;;;;5.45;2.30;;;;;;;8.02;43.07;102116.91;10509811;28;20051;-77
2023/04/09 05:38:15;;;;;;;7.80;2.28;;;;;;;8.28;42.51;102131.31;10529046;28;20048;-77
2023/04/09 05:43:19;;;;;;;5.10;2.33;;;;;;;8.92;42.17;102127.09;10510838;28;20048;-76
2023/04/09 05:48:23;;;;;;;3.47;2.17;;;;;;;9.04;41.50;102130.72;10490142;28;20358;-78
2023/04/09 05:53:28;;;;;;;7.50;2.20;;;;;;;8.92;41.08;102144.34;10510370;28;20063;-76
2023/04/09 05:58:32;;;;;;;7.57;2.20;;;;;;;9.25;41.86;102132.06;10494223;28;20044;-77
2023/04/09 06:03:34;;;;;;;4.97;2.28;;;;;;;9.48;40.01;102129.31;10507404;28;20037;-78
2023/04/09 06:08:37;;;;;;;4.85;2.00;;;;;;;9.72;40.16;102135.66;10509824;28;20041;-78
2023/04/09 06:13:40;;;;;;;9.25;2.35;;;;;;;10.09;39.37;102141.69;10510093;28;20049;-78
2023/04/09 06:18:45;;;;;;;6.13;2.40;;;;;;;10.49;38.20;102147.22;10526894;28;20056;-77
2023/04/09 06:23:47;;;;;;;6.95;2.83;;;;;;;10.38;39.52;102141.78;10487680;28;20563;-77
2023/04/09 06:28:51;;;;;;;7.95;2.53;;;;;;;10.97;38.25;102137.72;10527116;28;20036;-78
2023/04/09 06:33:56;;;;;;;7.78;2.25;;;;;;;10.81;38.06;102161.31;10527086;28;20060;-78
2023/04/09 06:38:59;;;;;;;5.32;2.28;;;;;;;11.05;37.58;102158.44;10527829;28;20056;-76
2023/04/09 06:44:03;;;;;;;7.05;2.35;;;;;;;11.53;38.11;102171.66;10516623;28;20048;-77
2023/04/09 06:49:05;;;;;;;4.45;1.90;;;;;;;11.80;37.25;102171.81;10530172;28;20542;-78
2023/04/09 06:54:07;;;;;;;7.88;2.55;;;;;;;12.28;36.17;102179.38;10536148;28;20047;-77
2023/04/09 06:59:10;;;;;;;7.68;2.22;;;;;;;12.65;35.72;102179.56;10535380;28;20037;-77
2023/04/09 07:04:13;;;;;;;4.80;1.73;;;;;;;12.52;35.63;102192.91;10535876;28;20052;-77
2023/04/09 07:09:17;;;;;;;2.97;1.88;;;;;;;12.77;34.87;102187.69;10501504;28;20052;-77
2023/04/09 07:14:20;;;;;;;5.38;1.90;;;;;;;13.33;33.23;102187.47;10535171;28;20047;-77
2023/04/09 07:19:22;;;;;;;2.17;1.50;;;;;;;13.39;32.76;102192.78;10542755;28;20048;-77
2023/04/09 07:24:25;;;;;;;4.80;1.42;;;;;;;13.28;33.27;102189.09;10551195;28;20043;-78
2023/04/09 07:29:28;;;;;;;4.25;2.20;;;;;;;13.75;31.94;102188.41;10530659;28;20048;-78
2023/04/09 07:34:30;;;;;;;1.90;1.55;;;;;;;13.59;32.37;102192.13;10516055;28;20040;-78
2023/04/09 07:39:33;;;;;;;3.60;1.77;;;;;;;14.86;31.39;102180.97;10511031;28;20064;-78
2023/04/09 07:44:35;;;;;;;5.63;1.70;;;;;;;14.30;31.73;102184.31;10515692;28;20044;-77
2023/04/09 07:49:37;;;;;;;5.03;1.42;;;;;;;14.54;31.32;102183.91;10515956;28;20036;-78
2023/04/09 07:54:40;;;;;;;5.07;1.55;;;;;;;14.75;30.69;102183.72;10531697;28;20047;-79
2023/04/09 07:59:42;;;;;;;8.27;1.52;;;;;;;14.55;30.70;102185.56;10529713;28;20504;-77
2023/04/09 08:04:44;;;;;;;4.47;1.27;;;;;;;14.82;29.89;102185.38;10479447;28;20041;-77
2023/04/09 08:09:47;;;;;;;4.07;1.27;;;;;;;14.50;30.32;102194.66;10473504;28;20052;-77
2023/04/09 08:14:49;;;;;;;2.92;1.40;;;;;;;14.52;30.55;102191.63;10529218;28;20045;-77
2023/04/09 08:19:52;;;;;;;9.05;1.52;;;;;;;14.73;30.42;102190.59;10532713;28;20044;-78
2023/04/09 08:24:56;;;;;;;4.10;1.20;;;;;;;15.45;29.02;102186.06;10513268;28;20416;-78
2023/04/09 08:29:58;;;;;;;5.23;1.33;;;;;;;15.44;29.27;102187.13;10494106;28;20048;-78
2023/04/09 08:35:00;;;;;;;6.35;1.75;;;;;;;15.93;28.94;102184.66;10505909;28;20037;-77
2023/04/09 08:40:03;;;;;;;4.28;1.30;;;;;;;15.10;29.46;102190.44;10510153;28;20044;-77
2023/04/09 08:45:06;;;;;;;6.85;1.88;;;;;;;16.09;28.58;102189.03;10546722;28;20509;-77
2023/04/09 08:50:09;;;;;;;3.55;1.33;;;;;;;15.75;29.22;102188.81;10572765;28;20047;-75
2023/04/09 08:55:11;;;;;;;5.43;1.77;;;;;;;15.09;28.74;102194.28;10572997;28;20044;-77
2023/04/09 09:00:14;;;;;;;4.00;1.33;;;;;;;15.99;27.96;102194.63;10572887;28;20081;-77
2023/04/09 09:05:16;;;;;;;4.00;1.50;;;;;;;15.58;27.88;102191.84;10553364;28;20055;-77
2023/04/09 09:10:18;;;;;;;1.65;0.95;;;;;;;15.87;26.67;102191.31;10573148;28;20040;-77
2023/04/09 09:15:27;;;;;;;0.98;0.88;;;;;;;15.83;26.34;102196.56;10572587;28;20407;-76
2023/04/09 09:20:30;;;;;;;10.50;2.25;;;;;;;14.43;27.67;102194.91;10539634;28;20037;-77
2023/04/09 09:25:37;;;;;;;5.88;1.20;;;;;;;13.04;30.06;102203.44;10488429;28;20398;-77
2023/04/09 09:30:40;;;;;;;4.93;1.40;;;;;;;12.47;29.99;102207.44;10494145;28;20528;-77
2023/04/09 09:35:47;;;;;;;1.58;1.13;;;;;;;12.08;30.96;102207.47;10480216;28;20052;-76
2023/04/09 09:40:51;;;;;;;3.03;1.40;;;;;;;11.60;32.21;102213.53;10500163;28;20508;-77
2023/04/09 09:45:53;;;;;;;5.53;1.40;;;;;;;11.48;32.41;102204.56;10487257;28;20045;-77
2023/04/09 09:50:56;;;;;;;2.72;1.40;;;;;;;11.23;31.48;102232.41;10468968;28;20511;-77
2023/04/09 09:55:59;;;;;;;1.20;1.10;;;;;;;10.94;31.71;102211.53;10485520;28;20036;-76
2023/04/09 10:01:02;;;;;;;6.90;1.35;;;;;;;10.82;32.64;102208.84;10487255;28;20040;-77
2023/04/09 10:06:05;;;;;;;4.88;1.48;;;;;;;10.70;32.68;102205.28;10486054;28;20049;-76
2023/04/09 10:11:07;;;;;;;2.17;1.20;;;;;;;10.65;32.56;102202.44;10486052;28;20420;-77
2023/04/09 10:16:10;;;;;;;2.25;1.17;;;;;;;10.60;31.79;102213.31;10468920;28;20071;-77
2023/04/09 10:21:26;;;;;;;2.25;1.00;;;;;;;10.62;32.83;102227.63;10478021;28;20044;-77
2023/04/09 10:26:29;;;;;;;3.38;0.90;;;;;;;10.85;32.50;102213.81;10485640;28;20053;-77
2023/04/09 10:31:51;;;;;;;4.13;1.40;;;;;;;10.95;32.00;102214.03;10484759;28;20427;-77
2023/04/09 10:36:58;;;;;;;1.02;0.82;;;;;;;10.92;31.71;102217.25;10484212;28;20135;-76
2023/04/09 10:42:07;;;;;;;5.75;1.10;;;;;;;10.82;31.98;102217.91;10481325;28;20546;-77
2023/04/09 10:47:11;;;;;;;4.20;1.80;;;;;;;10.72;31.55;102225.09;10508648;28;20036;-77
2023/04/09 10:52:15;;;;;;;1.80;1.02;;;;;;;10.68;31.63;102224.75;10526928;28;20408;-77
2023/04/09 10:57:20;;;;;;;3.97;1.00;;;;;;;10.73;32.19;102221.25;10525650;28;20416;-77
2023/04/09 11:02:36;;;;;;;4.65;1.20;;;;;;;10.85;31.87;102230.31;10527187;28;20071;-77
2023/04/09 11:07:40;;;;;;;4.75;1.20;;;;;;;10.93;31.31;102229.91;10509039;28;20055;-77
2023/04/09 11:12:42;;;;;;;1.98;1.05;;;;;;;10.79;31.32;102232.13;10508414;28;20518;-77
2023/04/09 11:17:46;;;;;;;3.53;0.90;;;;;;;10.67;31.50;102238.72;10525884;28;20514;-77
2023/04/09 11:22:50;;;;;;;3.22;1.00;;;;;;;10.61;31.71;102250.69;10472227;28;20044;-76
2023/04/09 11:27:53;;;;;;;2.25;0.90;;;;;;;10.45;31.23;102246.78;10492712;28;20040;-76
2023/04/09 11:32:55;;;;;;;1.30;0.90;;;;;;;10.47;31.50;102239.97;10533991;28;20055;-77
2023/04/09 11:37:57;;;;;;;1.70;1.10;;;;;;;10.50;31.22;102252.34;10482787;28;20051;-77
2023/04/09 11:43:01;;;;;;;1.65;0.90;;;;;;;10.34;31.04;102259.41;10482101;28;20047;-77
2023/04/09 11:48:04;;;;;;;4.25;1.23;;;;;;;10.25;31.59;102249.91;10497624;28;20056;-77
2023/04/09 11:53:20;;;;;;;3.80;1.00;;;;;;;10.42;31.33;102242.59;10497823;28;20493;-77
2023/04/09 11:58:25;;;;;;;0.93;0.80;;;;;;;10.48;31.86;102241.63;10498727;28;20051;-76
2023/04/09 12:03:29;;;;;;;2.92;1.13;;;;;;;10.36;31.61;102248.19;10532301;28;20045;-78
2023/04/09 12:08:36;;;;;;;2.10;1.08;;;;;;;10.35;31.71;102243.78;10514088;28;20492;-77
2023/04/09 12:13:44;;;;;;;2.92;1.10;;;;;;;10.32;31.78;102252.50;10531972;28;20033;-78
2023/04/09 12:18:49;;;;;;;5.05;1.13;;;;;;;10.26;31.82;102252.41;10514879;28;20051;-78
2023/04/09 12:23:53;;;;;;;4.25;1.20;;;;;;;10.25;31.64;102244.41;10514006;28;20036;-77
2023/04/09 12:28:58;;;;;;;11.43;2.90;;;;;;;10.36;32.02;102239.97;10532429;28;20044;-77
2023/04/09 12:34:00;;;;;;;2.92;1.10;;;;;;;10.38;31.96;102235.91;10513839;28;20049;-77
2023/04/09 12:39:04;;;;;;;3.10;1.08;;;;;;;10.44;31.48;102228.63;10496378;28;20384;-77
2023/04/09 12:44:08;;;;;;;5.13;1.30;;;;;;;10.52;31.27;102234.56;10506395;28;20419;-77
2023/04/09 12:49:26;;;;;;;2.42;1.63;;;;;;;10.52;31.41;102239.22;10530651;28;20131;-77
2023/04/09 12:54:48;;;;;;;3.70;1.10;;;;;;;10.57;31.18;102247.56;10516022;28;20056;-77
2023/04/09 12:59:50;;;;;;;6.03;1.40;;;;;;;10.30;31.48;102233.53;10492611;28;20600;-76
2023/04/09 13:04:52;;;;;;;1.55;0.90;;;;;;;10.27;31.18;102245.00;10527739;28;20113;-76
2023/04/09 13:10:15;;;;;;;2.30;1.10;;;;;;;10.28;31.99;102246.66;10501468;28;20118;-77
2023/04/09 13:15:44;;;;;;;2.60;0.90;;;;;;;10.42;31.17;102250.00;10529115;28;20495;-76
2023/04/09 13:21:06;;;;;;;3.00;1.30;;;;;;;10.41;32.20;102237.31;10529769;28;20053;-77
2023/04/09 13:26:12;;;;;;;3.63;1.42;;;;;;;10.53;31.82;102243.63;10529691;28;20102;-77
2023/04/09 13:31:32;;;;;;;4.80;1.35;;;;;;;10.43;31.66;102243.44;10514041;28;20040;-77
2023/04/09 13:36:38;;;;;;;8.10;1.52;;;;;;;10.50;32.03;102239.47;10511717;28;20527;-77
2023/04/09 13:41:43;;;;;;;3.00;1.13;;;;;;;10.48;30.97;102240.78;10529001;28;20103;-77
2023/04/09 13:47:04;;;;;;;8.10;1.88;;;;;;;10.49;31.29;102239.72;10528699;28;20085;-77
2023/04/09 13:52:25;;;;;;;2.25;1.35;;;;;;;10.31;31.05;102240.69;10512844;28;20592;-77
2023/04/09 13:57:46;;;;;;;2.13;0.82;;;;;;;10.18;31.17;102246.38;10513052;28;20516;-78
2023/04/09 14:02:52;;;;;;;4.00;1.45;;;;;;;10.11;32.23;102237.47;10494822;28;20051;-78
2023/04/09 14:07:54;;;;;;;4.47;1.10;;;;;;;10.20;31.41;102225.03;10528424;28;20040;-76
2023/04/09 14:12:57;;;;;;;2.42;1.20;;;;;;;10.16;31.19;102245.78;10527989;28;20041;-76
2023/04/09 14:18:00;;;;;;;2.55;1.15;;;;;;;10.04;31.62;102251.28;10528751;28;20044;-76
2023/04/09 14:23:02;;;;;;;4.55;1.30;;;;;;;9.87;32.07;102231.94;10481230;28;20459;-76
2023/04/09 14:28:04;;;;;;;2.40;1.23;;;;;;;9.81;31.86;102230.16;10485916;28;20048;-77
2023/04/09 14:33:07;;;;;;;7.65;1.17;;;;;;;9.81;31.80;102245.78;10468730;28;20045;-76
2023/04/09 14:38:09;;;;;;;3.50;1.27;;;;;;;9.67;32.14;102251.47;10470972;28;20049;-76
2023/04/09 14:43:11;;;;;;;2.83;1.13;;;;;;;9.63;31.76;102242.06;10485535;28;20040;-76
2023/04/09 14:48:13;;;;;;;3.97;0.90;;;;;;;9.72;32.10;102234.34;10467722;28;20448;-78
2023/04/09 14:53:16;;;;;;;1.88;1.08;;;;;;;9.68;32.01;102242.19;10486059;28;20072;-78
2023/04/09 14:58:19;;;;;;;2.95;1.10;;;;;;;9.63;31.61;102233.00;10486291;28;20058;-76
2023/04/09 15:03:22;;;;;;;1.30;1.15;;;;;;;9.53;31.91;102233.56;10472614;28;20044;-76
2023/04/09 15:08:24;;;;;;;3.17;0.82;;;;;;;9.45;31.09;102231.19;10478961;28;20029;-76
2023/04/09 15:13:27;;;;;;;2.22;1.10;;;;;;;9.36;31.88;102233.41;10488067;28;20051;-77
2023/04/09 15:18:29;;;;;;;2.90;1.10;;;;;;;9.32;31.21;102221.25;10494593;28;20059;-76
2023/04/09 15:23:34;;;;;;;3.80;1.30;;;;;;;9.34;30.77;102224.59;10493101;28;20068;-77
2023/04/09 15:28:36;;;;;;;2.78;1.20;;;;;;;9.34;30.70;102224.59;10492277;28;20052;-77
2023/04/09 15:33:41;;;;;;;3.80;1.60;;;;;;;9.38;30.48;102227.72;10492718;28;20044;-76
2023/04/09 15:38:43;;;;;;;2.17;1.30;;;;;;;9.43;30.47;102227.00;10491788;28;20057;-76
2023/04/09 15:43:46;;;;;;;3.35;1.42;;;;;;;9.40;30.33;102220.09;10490710;28;20053;-77
2023/04/09 15:48:48;;;;;;;6.15;1.67;;;;;;;9.34;30.96;102218.28;10491632;28;20040;-76
2023/04/09 15:53:52;;;;;;;2.90;1.38;;;;;;;9.21;31.61;102224.81;10491740;28;20055;-76
2023/04/09 15:58:54;;;;;;;4.30;1.73;;;;;;;9.22;31.13;102228.38;10491402;28;20408;-76
2023/04/09 16:03:56;;;;;;;3.17;1.23;;;;;;;9.05;31.56;102237.25;10473638;28;20049;-78
2023/04/09 16:08:58;;;;;;;3.00;1.40;;;;;;;9.03;32.52;102233.09;10491181;28;20040;-76
2023/04/09 16:14:01;;;;;;;4.55;1.50;;;;;;;9.07;32.31;102243.34;10472627;28;20051;-77
2023/04/09 16:19:23;;;;;;;3.80;1.23;;;;;;;8.95;32.38;102228.75;10508432;28;20036;-79
2023/04/09 16:24:49;;;;;;;6.35;1.30;;;;;;;8.86;32.65;102237.53;10528471;28;20044;-77
2023/04/09 16:29:51;;;;;;;1.67;1.35;;;;;;;8.80;33.26;102233.78;10554405;28;20039;-78
2023/04/09 16:34:54;;;;;;;1.67;1.10;;;;;;;8.77;33.53;102239.75;10523274;28;20051;-76
2023/04/09 16:39:57;;;;;;;1.20;0.75;;;;;;;8.87;33.66;102233.72;10529211;28;20047;-76
2023/04/09 16:45:03;;;;;;;3.10;1.38;;;;;;;8.70;33.41;102233.53;10518322;28;20036;-76
2023/04/09 16:50:09;;;;;;;7.30;1.42;;;;;;;8.61;33.44;102251.31;10500685;28;20040;-77
2023/04/09 16:55:11;;;;;;;2.50;0.32;;;;;;;8.58;34.10;102244.38;10527463;28;20043;-80
2023/04/09 17:00:16;;;;;;;1.40;0.75;;;;;;;8.56;34.38;102252.00;10506600;28;20047;-79
2023/04/09 17:05:18;;;;;;;4.40;1.45;;;;;;;8.44;33.48;102253.81;10535036;28;20044;-80
2023/04/09 17:10:20;;;;;;;3.83;1.00;;;;;;;8.44;34.33;102256.53;10499477;28;20132;-76
2023/04/09 17:15:23;;;;;;;5.15;1.63;;;;;;;8.46;33.72;102257.16;10514113;28;20037;-79
2023/04/09 17:20:28;;;;;;;2.15;0.85;;;;;;;8.31;33.97;102253.91;10553562;28;20076;-79
2023/04/09 17:25:30;;;;;;;7.32;1.48;;;;;;;8.33;33.75;102257.25;10542919;28;20506;-77
2023/04/09 17:30:33;;;;;;;2.95;1.58;;;;;;;8.40;34.20;102260.81;10519942;28;20403;-78
2023/04/09 17:35:36;;;;;;;8.38;1.85;;;;;;;8.31;34.42;102264.84;10528785;28;20052;-78
2023/04/09 17:40:38;;;;;;;2.38;1.30;;;;;;;8.13;34.52;102258.28;10505200;28;20393;-78
2023/04/09 17:45:41;;;;;;;8.02;2.50;;;;;;;7.93;34.39;102265.84;10555608;28;20039;-79
2023/04/09 17:50:48;;;;;;;13.20;3.85;;;;;;;8.04;34.19;102262.41;10531237;28;20043;-78
2023/04/09 17:55:51;;;;;;;;;;;;;;;7.78;34.15;102257.97;10505083;28;20037;-77
2023/04/09 18:00:54;;;;;;;5.20;2.47;;;;;;;7.69;35.74;102261.22;10521635;28;19961;-77
2023/04/09 18:05:56;;;;;;;3.72;2.10;;;;;;;7.62;36.26;102253.06;10510907;28;20045;-80
2023/04/09 18:11:02;;;;;;;3.13;1.30;;;;;;;7.63;34.88;102254.75;10511180;28;20105;-78
2023/04/09 18:16:08;;;;;;;3.90;1.77;;;;;;;7.56;34.84;102260.25;10530957;28;20044;-78
2023/04/09 18:21:10;;;;;;;7.43;1.67;;;;;;;7.43;35.13;102259.50;10492898;28;20051;-79
2023/04/09 18:26:12;;;;;;;5.90;2.22;;;;;;;7.22;35.11;102263.44;10511242;28;20483;-79
2023/04/09 18:31:15;;;;;;;3.97;1.60;;;;;;;7.16;35.47;102264.31;10495148;28;20602;-80
2023/04/09 18:36:18;;;;;;;1.75;1.60;;;;;;;7.18;35.83;102259.47;10513224;28;20040;-79
2023/04/09 18:41:23;;;;;;;5.55;1.70;;;;;;;7.16;36.12;102258.88;10533884;28;20048;-79
2023/04/09 18:46:26;;;;;;;5.20;1.83;;;;;;;7.20;36.59;102262.81;10536640;28;20480;-80
2023/04/09 18:51:29;;;;;;;3.17;2.08;;;;;;;7.00;36.89;102259.38;10548844;28;20418;-79
2023/04/09 18:56:31;;;;;;;7.22;2.63;;;;;;;6.91;37.00;102256.03;10544853;28;20044;-78
2023/04/09 19:01:33;;;;;;;4.20;2.40;;;;;;;6.72;37.47;102257.81;10511373;28;20048;-78
2023/04/09 19:06:36;;;;;;;5.22;2.40;;;;;;;6.60;37.90;102256.81;10537192;28;20048;-79
2023/04/09 19:11:38;;;;;;;5.07;3.45;;;;;;;6.50;38.09;102262.72;10528636;28;20404;-77
2023/04/09 19:16:42;;;;;;;6.05;2.58;;;;;;;6.41;37.98;102263.97;10514962;28;20041;-78
2023/04/09 19:21:45;;;;;;;8.65;3.92;;;;;;;6.34;38.84;102266.72;10502923;28;20044;-78
2023/04/09 19:26:49;;;;;;;4.40;2.50;;;;;;;6.42;39.16;102262.09;10507615;28;20040;-78
2023/04/09 19:31:51;;;;;;;3.63;2.40;;;;;;;6.27;38.92;102263.19;10515384;28;20430;-78
2023/04/09 19:36:54;;;;;;;5.85;2.35;;;;;;;6.22;39.16;102264.88;10536683;28;20052;-79
2023/04/09 19:41:57;;;;;;;6.80;2.90;;;;;;;6.14;38.83;102249.59;10546718;28;20056;-78
2023/04/09 19:47:00;;;;;;;4.85;2.72;;;;;;;5.97;39.03;102253.81;10547118;28;20037;-79
2023/04/09 19:52:06;;;;;;;4.65;2.50;;;;;;;5.86;39.32;102255.22;10514431;28;20047;-80
2023/04/09 19:57:09;;;;;;;5.80;2.45;;;;;;;5.66;40.01;102249.78;10549384;28;20051;-77
2023/04/09 20:02:11;;;;;;;5.90;2.33;;;;;;;5.68;39.92;102253.13;10529070;28;20032;-77
2023/04/09 20:07:14;;;;;;;5.22;2.30;;;;;;;5.49;40.28;102245.81;10510371;28;20036;-77
2023/04/09 20:12:20;;;;;;;5.50;1.80;;;;;;;5.45;40.39;102247.28;10518028;28;20491;-77
2023/04/09 20:17:23;;;;;;;6.10;2.13;;;;;;;5.48;41.26;102251.47;10526656;28;20052;-78
2023/04/09 20:22:25;;;;;;;5.57;2.30;;;;;;;5.40;40.58;102249.78;10515344;28;20044;-79
2023/04/09 20:27:27;;;;;;;6.15;2.50;;;;;;;5.37;40.53;102244.72;10558164;28;20037;-78
2023/04/09 20:32:30;;;;;;;3.42;2.30;;;;;;;5.20;40.46;102252.44;10537641;28;20070;-77
2023/04/09 20:37:32;;;;;;;4.72;2.13;;;;;;;5.11;41.20;102248.25;10538386;28;20052;-78
2023/04/09 20:42:34;;;;;;;4.85;2.35;;;;;;;5.03;41.31;102243.00;10506630;28;20507;-78
2023/04/09 20:47:37;;;;;;;4.85;2.35;;;;;;;4.97;41.35;102263.69;10521988;28;20068;-78
2023/04/09 20:52:39;;;;;;;6.80;2.30;;;;;;;5.02;41.67;102250.31;10496207;28;20044;-78
2023/04/09 20:57:42;;;;;;;5.30;3.10;;;;;;;4.93;42.06;102251.56;10522901;28;20059;-78
2023/04/09 21:02:44;;;;;;;6.18;2.30;;;;;;;4.80;42.48;102244.19;10493398;28;20041;-78
2023/04/09 21:07:47;;;;;;;6.38;2.30;;;;;;;4.61;42.14;102244.94;10507084;28;20044;-78
2023/04/09 21:12:49;;;;;;;4.90;2.38;;;;;;;4.75;42.81;102254.00;10505933;28;20416;-78
2023/04/09 21:17:51;;;;;;;8.88;2.33;;;;;;;4.66;42.57;102250.59;10494635;28;20067;-78
2023/04/09 21:22:53;;;;;;;7.63;2.80;;;;;;;4.60;43.00;102239.72;10511622;28;20036;-78
2023/04/09 21:27:55;;;;;;;4.78;2.08;;;;;;;4.68;43.25;102239.53;10494326;28;20045;-78
2023/04/09 21:33:02;;;;;;;5.78;2.83;;;;;;;4.62;43.29;102238.47;10514947;28;20063;-78
2023/04/09 21:38:04;;;;;;;5.40;2.38;;;;;;;4.59;43.54;102235.31;10486309;28;20044;-76
2023/04/09 21:43:07;;;;;;;4.78;2.00;;;;;;;4.58;43.88;102239.06;10511202;28;20041;-76
2023/04/09 21:48:11;;;;;;;4.25;1.77;;;;;;;4.50;43.87;102240.91;10504150;28;20073;-77
2023/04/09 21:53:14;;;;;;;5.47;2.30;;;;;;;4.50;44.00;102237.34;10525931;28;20128;-78
2023/04/09 21:58:16;;;;;;;6.90;2.40;;;;;;;4.30;43.66;102239.97;10561194;28;20044;-77
2023/04/09 22:03:18;;;;;;;5.43;2.63;;;;;;;4.22;44.46;102237.44;10533990;28;20044;-77
2023/04/09 22:08:20;;;;;;;5.18;2.78;;;;;;;4.00;44.38;102231.25;10528466;28;20040;-77
2023/04/09 22:13:22;;;;;;;3.88;2.35;;;;;;;3.84;45.16;102229.66;10523656;28;20047;-78
2023/04/09 22:18:24;;;;;;;3.25;1.95;;;;;;;3.88;45.03;102225.50;10528300;28;20048;-76
2023/04/09 22:23:27;;;;;;;5.13;2.22;;;;;;;3.88;44.67;102220.06;10514098;28;20052;-78
2023/04/09 22:28:29;;;;;;;6.38;1.88;;;;;;;3.88;45.22;102214.66;10521662;28;20053;-77
2023/04/09 22:33:31;;;;;;;2.88;1.77;;;;;;;3.97;45.34;102228.06;10541412;28;20051;-77
2023/04/09 22:38:33;;;;;;;8.80;2.00;;;;;;;3.86;45.27;102216.72;10542645;28;20052;-78
2023/04/09 22:43:36;;;;;;;7.25;3.10;;;;;;;3.84;45.11;102216.09;10546402;28;20035;-77
2023/04/09 22:48:38;;;;;;;7.07;2.15;;;;;;;3.77;45.21;102219.78;10514295;28;20040;-77
2023/04/09 22:53:41;;;;;;;2.70;1.55;;;;;;;3.75;45.74;102209.09;10489846;28;20117;-78
2023/04/09 22:58:43;;;;;;;4.57;1.75;;;;;;;3.70;45.78;102206.16;10527938;28;20044;-78
2023/04/09 23:03:45;;;;;;;4.07;2.05;;;;;;;3.70;45.99;102211.59;10482488;28;20495;-78
2023/04/09 23:08:47;;;;;;;6.20;2.92;;;;;;;3.75;45.86;102202.84;10544317;28;20480;-78
2023/04/09 23:13:50;;;;;;;2.70;1.80;;;;;;;3.77;46.00;102207.03;10558307;28;20522;-77
2023/04/09 23:18:52;;;;;;;5.57;2.03;;;;;;;3.78;45.94;102207.88;10529550;28;20048;-78
2023/04/09 23:23:54;;;;;;;3.70;1.70;;;;;;;3.67;46.23;102213.88;10492955;28;20416;-76
2023/04/09 23:28:56;;;;;;;3.45;1.88;;;;;;;3.62;46.67;102204.41;10537552;28;20056;-78